Time;durP1;ratioP1;P1;durP2;ratioP2;P2;SDS_P1;SDS_P2;PMS_P1;PMS_P2;Temp;Humidity;BMP_temperature;BMP_pressure;BME280_temperature;BME280_humidity;BME280_pressure;Samples;Min_cycle;Max_cycle;Signal;HPM_P1;HPM_P2
2022/11/18 00:01:19;;;;;;;44.90;28.38;;;6.60;99.90;;;;;;5053425;28;20051;-43
2022/11/18 00:03:46;;;;;;;43.30;29.08;;;6.70;99.90;;;;;;5052986;28;20403;-42
2022/11/18 00:06:14;;;;;;;40.60;27.48;;;6.50;99.90;;;;;;5053058;28;20119;-43
2022/11/18 00:08:39;;;;;;;38.85;26.90;;;6.60;99.90;;;;;;5055010;28;20085;-44
2022/11/18 00:14:17;;;;;;;38.55;27.20;;;6.60;99.90;;;;;;5057295;28;20501;-43
2022/11/18 00:14:17;;;;;;;41.17;27.65;;;6.50;99.90;;;;;;5057133;28;20053;-44
2022/11/18 00:16:44;;;;;;;46.17;28.30;;;6.60;99.90;;;;;;5057290;28;20048;-43
2022/11/18 00:19:09;;;;;;;45.70;28.58;;;6.50;99.90;;;;;;5056263;28;20053;-44
2022/11/18 00:21:35;;;;;;;44.67;27.85;;;6.70;99.90;;;;;;5057174;28;20106;-43
2022/11/18 00:24:01;;;;;;;40.10;27.50;;;6.70;99.90;;;;;;5057462;28;20045;-43
2022/11/18 00:26:26;;;;;;;41.03;27.38;;;6.50;99.90;;;;;;5057143;28;20045;-43
2022/11/18 00:28:52;;;;;;;42.88;26.42;;;6.60;99.90;;;;;;5057142;28;20045;-43
2022/11/18 00:31:18;;;;;;;42.47;27.40;;;6.70;99.90;;;;;;5057095;28;20045;-44
2022/11/18 00:33:43;;;;;;;41.42;27.13;;;6.70;99.90;;;;;;5056078;28;20399;-43
2022/11/18 00:36:12;;;;;;;38.45;26.45;;;6.70;99.90;;;;;;5055722;28;20052;-43
2022/11/18 00:38:38;;;;;;;40.67;27.00;;;6.70;99.90;;;;;;5055462;28;20491;-43
2022/11/18 00:41:12;;;;;;;40.13;26.83;;;6.60;99.90;;;;;;5056865;28;20049;-43
2022/11/18 00:43:42;;;;;;;37.47;24.13;;;6.70;99.90;;;;;;5056860;28;20056;-44
2022/11/18 00:46:10;;;;;;;40.70;26.38;;;6.60;99.90;;;;;;5056741;28;20140;-43
2022/11/18 00:48:36;;;;;;;39.60;26.38;;;6.50;99.90;;;;;;5056710;28;20107;-43
2022/11/18 00:51:12;;;;;;;40.00;25.67;;;6.60;99.90;;;;;;5055491;28;20548;-44
2022/11/18 00:53:38;;;;;;;41.13;27.50;;;6.60;99.90;;;;;;5056682;28;20049;-44
2022/11/18 00:56:04;;;;;;;38.33;26.80;;;6.50;99.90;;;;;;5056818;28;20095;-43
2022/11/18 00:58:29;;;;;;;42.28;25.95;;;6.60;99.90;;;;;;5055126;28;20473;-43
2022/11/18 01:00:55;;;;;;;36.42;25.23;;;6.70;99.90;;;;;;5089184;28;20136;-43
2022/11/18 01:03:23;;;;;;;42.70;28.02;;;6.50;99.90;;;;;;5056146;28;20052;-44
2022/11/18 01:05:49;;;;;;;47.63;27.63;;;6.60;99.90;;;;;;5056927;28;20088;-44
2022/11/18 01:08:14;;;;;;;41.53;26.58;;;6.70;99.90;;;;;;5056354;28;20052;-44
2022/11/18 01:10:40;;;;;;;42.80;26.80;;;6.60;99.90;;;;;;5056330;28;20085;-44
2022/11/18 01:13:21;;;;;;;44.70;26.77;;;6.50;99.90;;;;;;5055236;28;20084;-44
2022/11/18 01:15:56;;;;;;;42.63;27.63;;;6.60;99.90;;;;;;5056739;28;20411;-44
2022/11/18 01:18:25;;;;;;;47.33;28.27;;;6.70;99.90;;;;;;5056739;28;20080;-44
2022/11/18 01:20:51;;;;;;;44.13;27.70;;;6.70;99.90;;;;;;5056114;28;20049;-44
2022/11/18 01:23:18;;;;;;;45.58;28.13;;;6.50;99.90;;;;;;5056673;28;20382;-44
2022/11/18 01:25:45;;;;;;;45.00;27.52;;;6.50;99.90;;;;;;5056062;28;20098;-44
2022/11/18 01:28:12;;;;;;;47.13;28.38;;;6.60;99.90;;;;;;5055599;28;20060;-44
2022/11/18 01:30:39;;;;;;;48.35;28.40;;;6.60;99.90;;;;;;5056192;28;20501;-43
2022/11/18 01:33:05;;;;;;;44.47;26.75;;;6.50;99.90;;;;;;5055907;28;20047;-44
2022/11/18 01:35:40;;;;;;;49.75;29.15;;;6.50;99.90;;;;;;5056375;28;20045;-44
2022/11/18 01:38:07;;;;;;;49.55;28.40;;;6.70;99.90;;;;;;5055759;28;20391;-44
2022/11/18 01:40:33;;;;;;;55.08;28.33;;;6.70;99.90;;;;;;5055790;28;20041;-43
2022/11/18 01:43:07;;;;;;;56.05;29.73;;;6.70;99.90;;;;;;5054536;28;20049;-45
2022/11/18 01:45:39;;;;;;;49.22;29.65;;;6.60;99.90;;;;;;5039125;28;20084;-44
2022/11/18 01:48:17;;;;;;;51.42;27.73;;;6.50;99.90;;;;;;5055680;28;20063;-43
2022/11/18 01:50:59;;;;;;;52.60;28.83;;;6.50;99.90;;;;;;5055844;28;20394;-44
2022/11/18 01:53:30;;;;;;;53.73;30.83;;;6.60;99.90;;;;;;5054516;28;20056;-44
2022/11/18 01:55:58;;;;;;;58.08;32.47;;;6.50;99.90;;;;;;5055408;28;20088;-44
2022/11/18 01:58:32;;;;;;;66.28;33.42;;;6.50;99.90;;;;;;5055267;28;20053;-44
2022/11/18 02:00:59;;;;;;;65.15;34.50;;;6.40;99.90;;;;;;5055417;28;20057;-43
2022/11/18 02:03:25;;;;;;;78.38;37.67;;;6.40;99.90;;;;;;5055185;28;20106;-44
2022/11/18 02:05:52;;;;;;;90.07;40.35;;;6.50;99.90;;;;;;5054979;28;20591;-44
2022/11/18 02:08:21;;;;;;;90.00;39.28;;;6.40;99.90;;;;;;5054050;28;20049;-44
2022/11/18 02:10:47;;;;;;;88.20;38.42;;;6.50;99.90;;;;;;5055706;28;20041;-44
2022/11/18 02:13:13;;;;;;;99.25;42.42;;;6.30;99.90;;;;;;5055065;28;20395;-44
2022/11/18 02:15:51;;;;;;;93.05;41.13;;;6.40;99.90;;;;;;5070455;28;20044;-43
2022/11/18 02:18:27;;;;;;;90.60;38.92;;;6.50;99.90;;;;;;5055028;28;20499;-44
2022/11/18 02:21:23;;;;;;;89.55;38.22;;;6.50;99.90;;;;;;5055597;28;20049;-44
2022/11/18 02:24:13;;;;;;;93.85;40.13;;;6.40;99.90;;;;;;5043823;28;20057;-44
2022/11/18 02:27:01;;;;;;;87.28;39.42;;;6.40;99.90;;;;;;5055727;28;20045;-44
2022/11/18 02:29:36;;;;;;;85.13;39.58;;;6.50;99.90;;;;;;5054326;28;20088;-43
2022/11/18 02:32:12;;;;;;;92.30;40.28;;;6.50;99.90;;;;;;5055067;28;20045;-44
2022/11/18 02:35:15;;;;;;;77.72;37.83;;;6.50;99.90;;;;;;5055326;28;20068;-44
2022/11/18 02:37:55;;;;;;;84.80;37.70;;;6.50;99.90;;;;;;5054879;28;20056;-43
2022/11/18 02:40:29;;;;;;;81.85;36.80;;;6.40;99.90;;;;;;5053512;28;20442;-44
2022/11/18 02:43:10;;;;;;;73.43;35.15;;;6.30;99.90;;;;;;5070676;28;20048;-44
2022/11/18 02:45:39;;;;;;;66.28;34.25;;;6.50;99.90;;;;;;5053285;28;20068;-44
2022/11/18 02:48:09;;;;;;;70.20;33.33;;;6.40;99.90;;;;;;5053004;28;20045;-44
2022/11/18 02:50:36;;;;;;;77.65;35.58;;;6.50;99.90;;;;;;5054391;28;20047;-44
2022/11/18 02:53:05;;;;;;;74.07;34.88;;;6.30;99.90;;;;;;5036560;28;20372;-44
2022/11/18 02:55:36;;;;;;;73.03;34.90;;;6.40;99.90;;;;;;5054271;28;20071;-44
2022/11/18 02:58:03;;;;;;;77.35;36.35;;;6.30;99.90;;;;;;5054901;28;20403;-44
2022/11/18 03:00:30;;;;;;;70.32;33.38;;;6.30;99.90;;;;;;5054220;28;20079;-43
2022/11/18 03:02:56;;;;;;;69.15;31.88;;;6.40;99.90;;;;;;5053024;28;20057;-44
2022/11/18 03:05:47;;;;;;;66.45;33.75;;;6.30;99.90;;;;;;5070675;28;20352;-44
2022/11/18 03:08:24;;;;;;;67.63;32.70;;;6.20;99.90;;;;;;5053830;28;20455;-44
2022/11/18 03:11:15;;;;;;;76.88;33.53;;;6.40;99.90;;;;;;5054091;28;20124;-44
2022/11/18 03:14:14;;;;;;;67.30;32.50;;;6.20;99.90;;;;;;5051138;28;20053;-44
2022/11/18 03:17:18;;;;;;;82.78;35.45;;;6.20;99.90;;;;;;5053944;28;20043;-44
2022/11/18 03:19:56;;;;;;;71.68;32.28;;;6.30;99.90;;;;;;5054609;28;20192;-44
2022/11/18 03:22:51;;;;;;;67.90;32.90;;;6.30;99.90;;;;;;5053969;28;20059;-44
2022/11/18 03:25:37;;;;;;;71.13;31.98;;;6.20;99.90;;;;;;5071102;28;20439;-44
2022/11/18 03:28:20;;;;;;;65.65;29.27;;;6.30;99.90;;;;;;5053871;28;20090;-45
2022/11/18 03:30:52;;;;;;;59.20;28.40;;;6.20;99.90;;;;;;5053245;28;20092;-44
2022/11/18 03:33:23;;;;;;;59.10;28.75;;;6.20;99.90;;;;;;5053801;28;20071;-44
2022/11/18 03:35:52;;;;;;;55.53;26.70;;;6.20;99.90;;;;;;5054215;28;20041;-44
2022/11/18 03:38:25;;;;;;;54.42;27.20;;;6.20;99.90;;;;;;5054004;28;20134;-44
2022/11/18 03:40:57;;;;;;;51.17;25.75;;;6.10;99.90;;;;;;5054027;28;20090;-44
2022/11/18 03:43:26;;;;;;;54.53;27.15;;;6.10;99.90;;;;;;5053285;28;20128;-44
2022/11/18 03:45:58;;;;;;;49.97;26.55;;;6.10;99.90;;;;;;5053571;28;20041;-44
2022/11/18 03:48:30;;;;;;;51.17;26.95;;;6.10;99.90;;;;;;5053611;28;20475;-44
2022/11/18 03:51:03;;;;;;;44.92;24.83;;;6.00;99.90;;;;;;5053532;28;20059;-44
2022/11/18 03:53:34;;;;;;;45.47;25.92;;;6.10;99.90;;;;;;5053872;28;20048;-44
2022/11/18 03:56:15;;;;;;;44.17;25.20;;;6.10;99.90;;;;;;5054000;28;20036;-45
2022/11/18 03:59:10;;;;;;;43.97;25.25;;;6.10;99.90;;;;;;5053063;28;20057;-44
2022/11/18 04:01:36;;;;;;;47.13;24.95;;;6.00;99.90;;;;;;5053480;28;20052;-44
2022/11/18 04:04:02;;;;;;;44.55;24.13;;;6.00;99.90;;;;;;5053413;28;20056;-44
2022/11/18 04:06:41;;;;;;;42.97;22.45;;;6.10;99.90;;;;;;5053454;28;20552;-44
2022/11/18 04:09:18;;;;;;;42.95;23.77;;;6.10;99.90;;;;;;5053399;28;20544;-44
2022/11/18 04:12:04;;;;;;;42.05;21.88;;;6.10;99.90;;;;;;5053564;28;20091;-44
2022/11/18 04:14:33;;;;;;;37.75;21.92;;;6.00;99.90;;;;;;5053934;28;20049;-45
2022/11/18 04:16:58;;;;;;;38.38;23.63;;;6.10;99.90;;;;;;5052604;28;20045;-45
2022/11/18 04:19:24;;;;;;;41.63;22.65;;;6.00;99.90;;;;;;5052309;28;20552;-44
2022/11/18 04:21:50;;;;;;;41.25;22.85;;;6.10;99.90;;;;;;5053267;28;20041;-45
2022/11/18 04:24:16;;;;;;;39.30;22.75;;;5.90;99.90;;;;;;5054061;28;20045;-44
2022/11/18 04:26:42;;;;;;;40.83;22.92;;;6.00;99.90;;;;;;5053255;28;20495;-44
2022/11/18 04:29:07;;;;;;;40.53;22.65;;;6.00;99.90;;;;;;5052536;28;20048;-45
2022/11/18 04:31:33;;;;;;;42.83;22.33;;;6.00;99.90;;;;;;5053209;28;20045;-44
2022/11/18 04:33:59;;;;;;;44.55;22.30;;;6.00;99.90;;;;;;5053404;28;20045;-44
2022/11/18 04:36:24;;;;;;;44.30;22.67;;;6.00;99.90;;;;;;5053311;28;20044;-44
2022/11/18 04:38:51;;;;;;;40.22;22.17;;;6.10;99.90;;;;;;5052331;28;20053;-45
2022/11/18 04:41:16;;;;;;;41.90;22.50;;;6.00;99.90;;;;;;5052741;28;20388;-44
2022/11/18 04:43:42;;;;;;;42.03;22.58;;;6.00;99.90;;;;;;5052103;28;20048;-45
2022/11/18 04:46:08;;;;;;;39.58;22.30;;;6.00;99.90;;;;;;5053046;28;20083;-45
2022/11/18 04:48:33;;;;;;;42.17;23.17;;;6.00;99.90;;;;;;5035377;28;20060;-44
2022/11/18 04:51:05;;;;;;;36.33;21.17;;;6.00;99.90;;;;;;5052980;28;20128;-44
2022/11/18 04:53:31;;;;;;;39.10;20.77;;;6.00;99.90;;;;;;5051789;28;20087;-45
2022/11/18 04:56:05;;;;;;;34.45;20.88;;;6.00;99.90;;;;;;5054823;28;20045;-45
2022/11/18 04:58:31;;;;;;;39.50;20.65;;;5.90;99.90;;;;;;5056515;28;20122;-45
2022/11/18 05:00:56;;;;;;;38.58;20.15;;;6.00;99.90;;;;;;5057069;28;20049;-45
2022/11/18 05:03:22;;;;;;;31.05;18.88;;;6.00;99.90;;;;;;5056493;28;20135;-45
2022/11/18 05:05:47;;;;;;;33.65;20.42;;;5.90;99.90;;;;;;5056740;28;20080;-45
2022/11/18 05:08:13;;;;;;;36.00;20.20;;;6.00;99.90;;;;;;5056697;28;20521;-45
2022/11/18 05:10:39;;;;;;;34.75;19.63;;;5.90;99.90;;;;;;5056618;28;20503;-45
2022/11/18 05:13:04;;;;;;;33.22;20.08;;;6.00;99.90;;;;;;5038689;28;20053;-45
2022/11/18 05:15:31;;;;;;;29.08;18.33;;;5.90;99.90;;;;;;5056141;28;20049;-45
2022/11/18 05:17:56;;;;;;;32.25;20.20;;;6.00;99.90;;;;;;5055499;28;20486;-45
2022/11/18 05:20:22;;;;;;;30.42;19.35;;;5.80;99.90;;;;;;5056201;28;20131;-45
2022/11/18 05:22:48;;;;;;;36.33;20.48;;;5.90;99.90;;;;;;5056099;28;20048;-45
2022/11/18 05:25:13;;;;;;;31.60;19.02;;;5.90;99.90;;;;;;5056145;28;20084;-44
2022/11/18 05:27:39;;;;;;;34.65;19.52;;;5.90;99.90;;;;;;5056033;28;20037;-45
2022/11/18 05:30:05;;;;;;;32.38;19.38;;;5.80;99.90;;;;;;5056251;28;20051;-45
2022/11/18 05:32:31;;;;;;;35.05;18.50;;;5.90;99.90;;;;;;5054971;28;20139;-45
2022/11/18 05:34:59;;;;;;;31.95;18.48;;;5.80;99.90;;;;;;5055359;28;20123;-45
2022/11/18 05:37:24;;;;;;;30.77;19.30;;;5.80;99.90;;;;;;5055763;28;20621;-45
2022/11/18 05:39:50;;;;;;;36.85;21.65;;;5.80;99.90;;;;;;5055669;28;20139;-45
2022/11/18 05:45:00;;;;;;;35.60;21.10;;;5.90;99.90;;;;;;5054762;28;20053;-45
2022/11/18 05:47:26;;;;;;;36.42;20.92;;;5.90;99.90;;;;;;5055959;28;20049;-45
2022/11/18 05:49:51;;;;;;;39.15;21.42;;;5.90;99.90;;;;;;5055597;28;20608;-45
2022/11/18 05:52:17;;;;;;;36.45;20.35;;;5.90;99.90;;;;;;5054109;28;20131;-45
2022/11/18 05:54:47;;;;;;;37.97;20.50;;;5.80;99.90;;;;;;5054377;28;20049;-45
2022/11/18 05:57:12;;;;;;;37.22;20.02;;;5.80;99.90;;;;;;5055672;28;20040;-45
2022/11/18 05:59:38;;;;;;;40.67;20.48;;;5.90;99.90;;;;;;5054445;28;20040;-45
2022/11/18 06:02:11;;;;;;;41.47;21.15;;;5.80;99.90;;;;;;5055392;28;20048;-45
2022/11/18 06:04:45;;;;;;;38.55;19.95;;;5.80;99.90;;;;;;5038123;28;20106;-45
2022/11/18 06:07:27;;;;;;;36.83;19.65;;;5.80;99.90;;;;;;5055609;28;20549;-45
2022/11/18 06:09:57;;;;;;;41.38;20.45;;;5.70;99.90;;;;;;5054629;28;20056;-45
2022/11/18 06:12:28;;;;;;;42.92;21.40;;;5.80;99.90;;;;;;5055154;28;20045;-45
2022/11/18 06:15:00;;;;;;;42.15;20.80;;;5.80;99.90;;;;;;5055772;28;20095;-45
2022/11/18 06:17:54;;;;;;;43.03;22.65;;;5.70;99.90;;;;;;5037571;28;20057;-45
2022/11/18 06:20:21;;;;;;;45.30;22.58;;;5.80;99.90;;;;;;5054316;28;20052;-45
2022/11/18 06:22:50;;;;;;;42.90;21.75;;;5.70;99.90;;;;;;5054982;28;20095;-45
2022/11/18 06:25:16;;;;;;;39.63;21.52;;;5.90;99.90;;;;;;5054935;28;20092;-45
2022/11/18 06:27:43;;;;;;;43.78;21.83;;;5.70;99.90;;;;;;5055159;28;20036;-45
2022/11/18 06:30:09;;;;;;;44.88;22.05;;;5.80;99.90;;;;;;5054877;28;20040;-45
2022/11/18 06:32:34;;;;;;;51.08;22.63;;;5.80;99.90;;;;;;5054203;28;20128;-45
2022/11/18 06:35:00;;;;;;;47.78;23.10;;;5.80;99.90;;;;;;5053589;28;20132;-45
2022/11/18 06:37:26;;;;;;;45.30;21.67;;;5.70;99.90;;;;;;5054646;28;20048;-45
2022/11/18 06:39:51;;;;;;;43.72;21.40;;;5.80;99.90;;;;;;5054177;28;20065;-46
2022/11/18 06:45:03;;;;;;;49.17;23.55;;;5.80;99.90;;;;;;5054625;28;20088;-45
2022/11/18 06:47:28;;;;;;;47.15;23.27;;;5.80;99.90;;;;;;5054538;28;20099;-46
2022/11/18 06:49:54;;;;;;;44.28;21.50;;;5.80;99.90;;;;;;5054503;28;20045;-45
2022/11/18 06:52:21;;;;;;;44.88;23.90;;;5.70;99.90;;;;;;5054451;28;20045;-45
2022/11/18 06:54:47;;;;;;;51.50;24.88;;;5.70;99.90;;;;;;5054644;28;20077;-46
2022/11/18 06:57:13;;;;;;;49.03;24.20;;;5.70;99.90;;;;;;5054293;28;20040;-46
2022/11/18 06:59:38;;;;;;;57.35;25.25;;;5.90;99.90;;;;;;5055163;28;20090;-45
2022/11/18 07:02:04;;;;;;;53.17;23.60;;;5.90;99.90;;;;;;5020270;28;20056;-46
2022/11/18 07:04:32;;;;;;;44.78;22.25;;;5.70;99.90;;;;;;5036491;28;20439;-46
2022/11/18 07:06:58;;;;;;;47.75;23.27;;;5.80;99.90;;;;;;5053191;28;20111;-46
2022/11/18 07:09:23;;;;;;;42.42;21.77;;;5.70;99.90;;;;;;5054164;28;20041;-46
2022/11/18 07:11:49;;;;;;;38.78;20.33;;;5.70;99.90;;;;;;5036403;28;20049;-46
2022/11/18 07:14:15;;;;;;;47.08;22.27;;;5.60;99.90;;;;;;5054089;28;20158;-46
2022/11/18 07:16:41;;;;;;;48.42;21.95;;;5.70;99.90;;;;;;5052751;28;20124;-47
2022/11/18 07:19:11;;;;;;;47.08;21.40;;;5.70;99.90;;;;;;5053349;28;20045;-45
2022/11/18 07:21:37;;;;;;;47.67;21.40;;;5.70;99.90;;;;;;5053973;28;20479;-46
2022/11/18 07:24:06;;;;;;;50.05;21.25;;;5.60;99.90;;;;;;5052656;28;20044;-46
2022/11/18 07:26:32;;;;;;;44.47;20.98;;;5.60;99.90;;;;;;5052410;28;20048;-46
2022/11/18 07:28:58;;;;;;;46.25;20.88;;;5.70;99.90;;;;;;5069247;28;20405;-46
2022/11/18 07:31:24;;;;;;;51.20;22.42;;;5.60;99.90;;;;;;5053353;28;20048;-46
2022/11/18 07:33:53;;;;;;;45.08;21.83;;;5.60;99.90;;;;;;5053893;28;20530;-46
2022/11/18 07:36:21;;;;;;;41.97;20.73;;;5.70;99.90;;;;;;5053316;28;20092;-46
2022/11/18 07:38:49;;;;;;;48.42;20.83;;;5.70;99.90;;;;;;5053070;28;20056;-46
2022/11/18 07:41:17;;;;;;;52.33;22.83;;;5.70;99.90;;;;;;5053728;28;20057;-46
2022/11/18 07:43:44;;;;;;;49.17;21.70;;;5.60;99.90;;;;;;5053283;28;20048;-46
2022/11/18 07:46:29;;;;;;;47.47;22.25;;;5.60;99.90;;;;;;5052657;28;20041;-46
2022/11/18 07:48:57;;;;;;;48.72;22.13;;;5.70;99.90;;;;;;5052484;28;20053;-46
2022/11/18 07:51:25;;;;;;;44.95;21.77;;;5.70;99.90;;;;;;5053539;28;20084;-46
2022/11/18 07:53:51;;;;;;;49.53;21.45;;;5.70;99.90;;;;;;5053502;28;20056;-46
2022/11/18 07:56:18;;;;;;;48.38;22.05;;;5.70;99.90;;;;;;5019504;28;20394;-47
2022/11/18 07:58:44;;;;;;;46.58;22.45;;;5.70;99.90;;;;;;5053493;28;20044;-46
2022/11/18 08:01:18;;;;;;;40.13;22.55;;;5.70;99.90;;;;;;5053434;28;20048;-46
2022/11/18 08:03:45;;;;;;;46.15;21.95;;;5.60;99.90;;;;;;5054088;28;20434;-46
2022/11/18 08:06:12;;;;;;;43.10;24.17;;;5.70;99.90;;;;;;5053415;28;20087;-47
2022/11/18 08:08:38;;;;;;;40.47;21.25;;;5.70;99.90;;;;;;5053402;28;20049;-46
2022/11/18 08:11:07;;;;;;;42.72;21.77;;;5.70;99.90;;;;;;5053917;28;20045;-46
2022/11/18 08:13:33;;;;;;;41.70;22.90;;;5.70;99.90;;;;;;5053368;28;20045;-47
2022/11/18 08:16:00;;;;;;;51.83;22.95;;;5.60;99.90;;;;;;5053238;28;20480;-46
2022/11/18 08:18:27;;;;;;;40.00;22.95;;;5.70;99.90;;;;;;5052144;28;20190;-46
2022/11/18 08:20:53;;;;;;;54.40;22.58;;;5.60;99.90;;;;;;5069377;28;20127;-47
2022/11/18 08:23:19;;;;;;;39.97;23.05;;;5.70;99.90;;;;;;5053533;28;20183;-46
2022/11/18 08:25:45;;;;;;;45.13;22.17;;;5.60;99.90;;;;;;5053272;28;20049;-47
2022/11/18 08:28:12;;;;;;;44.15;23.80;;;5.70;99.90;;;;;;5053743;28;20130;-46
2022/11/18 08:30:37;;;;;;;38.58;22.10;;;5.70;99.90;;;;;;5056377;28;20114;-47
2022/11/18 08:33:04;;;;;;;40.10;22.30;;;5.70;99.90;;;;;;5057664;28;20052;-47
2022/11/18 08:35:31;;;;;;;39.15;19.80;;;5.70;99.90;;;;;;5057320;28;20037;-47
2022/11/18 08:37:57;;;;;;;42.40;20.63;;;5.80;99.90;;;;;;5057741;28;20059;-47
2022/11/18 08:40:23;;;;;;;36.75;19.40;;;5.70;99.90;;;;;;5039062;28;20059;-47
2022/11/18 08:42:49;;;;;;;30.15;18.52;;;5.70;99.90;;;;;;5039317;28;20057;-47
2022/11/18 08:45:15;;;;;;;33.00;17.42;;;5.70;99.90;;;;;;5055678;28;20132;-47
2022/11/18 08:47:40;;;;;;;36.72;18.92;;;5.70;99.90;;;;;;5039229;28;20099;-48
2022/11/18 08:50:09;;;;;;;35.90;17.85;;;5.70;99.90;;;;;;5056800;28;20075;-47
2022/11/18 08:52:35;;;;;;;32.85;18.30;;;5.70;99.90;;;;;;5057296;28;20052;-47
2022/11/18 08:55:01;;;;;;;33.47;18.33;;;5.70;99.90;;;;;;5056993;28;20399;-47
2022/11/18 08:57:27;;;;;;;38.38;19.38;;;5.70;99.90;;;;;;5056566;28;20399;-47
2022/11/18 08:59:52;;;;;;;34.83;18.73;;;5.70;99.90;;;;;;5056588;28;20036;-47
2022/11/18 09:02:20;;;;;;;36.92;20.20;;;5.70;99.90;;;;;;5056594;28;20060;-47
2022/11/18 09:04:55;;;;;;;30.73;18.15;;;5.70;99.90;;;;;;5056504;28;20049;-47
2022/11/18 09:07:21;;;;;;;29.63;18.02;;;5.70;99.90;;;;;;5057075;28;20044;-47
2022/11/18 09:09:47;;;;;;;36.67;19.85;;;5.70;99.90;;;;;;5056404;28;20052;-48
2022/11/18 09:12:14;;;;;;;35.83;20.13;;;5.60;99.90;;;;;;5056981;28;20391;-47
2022/11/18 09:14:43;;;;;;;38.03;22.27;;;5.70;99.90;;;;;;5056853;28;20129;-47
2022/11/18 09:17:10;;;;;;;32.53;19.10;;;5.70;99.90;;;;;;5056176;28;20387;-47
2022/11/18 09:19:36;;;;;;;30.77;19.27;;;5.70;99.90;;;;;;5057039;28;20443;-46
2022/11/18 09:22:03;;;;;;;33.53;19.20;;;5.60;99.90;;;;;;5057004;28;20052;-47
2022/11/18 09:24:28;;;;;;;34.92;19.20;;;5.70;99.90;;;;;;5056148;28;20040;-47
2022/11/18 09:26:54;;;;;;;29.88;17.20;;;5.70;99.90;;;;;;5056119;28;20102;-48
2022/11/18 09:29:24;;;;;;;27.75;16.90;;;5.70;99.90;;;;;;5056089;28;20423;-48
2022/11/18 09:31:50;;;;;;;29.20;17.48;;;5.70;99.90;;;;;;5055374;28;20088;-47
2022/11/18 09:34:16;;;;;;;29.88;17.45;;;5.60;99.90;;;;;;5055909;28;20064;-47
2022/11/18 09:36:41;;;;;;;31.23;17.85;;;5.70;99.90;;;;;;5054678;28;20045;-47
2022/11/18 09:39:07;;;;;;;31.80;18.98;;;5.70;99.90;;;;;;5054417;28;20049;-47
2022/11/18 09:41:54;;;;;;;30.67;18.88;;;5.70;99.90;;;;;;5054167;28;20102;-46
2022/11/18 09:44:32;;;;;;;27.92;18.90;;;5.70;99.90;;;;;;5055782;28;20483;-46
2022/11/18 09:47:18;;;;;;;30.50;17.33;;;5.70;99.90;;;;;;5056031;28;20048;-46
2022/11/18 09:49:45;;;;;;;27.85;15.90;;;5.60;99.90;;;;;;5056282;28;20045;-46
2022/11/18 09:52:24;;;;;;;29.02;16.52;;;5.60;99.90;;;;;;5055292;28;20553;-46
2022/11/18 09:54:50;;;;;;;32.00;16.55;;;5.60;99.90;;;;;;5055583;28;20045;-46
2022/11/18 09:57:19;;;;;;;27.00;15.90;;;5.70;99.90;;;;;;5054305;28;20048;-46
2022/11/18 09:59:46;;;;;;;28.20;16.00;;;5.70;99.90;;;;;;5055425;28;20048;-47
2022/11/18 10:02:41;;;;;;;28.92;16.40;;;5.70;99.90;;;;;;5055415;28;20049;-47
2022/11/18 10:05:23;;;;;;;29.00;16.38;;;5.60;99.90;;;;;;5071386;28;20056;-48
2022/11/18 10:08:09;;;;;;;25.08;15.10;;;5.60;99.90;;;;;;5055347;28;20040;-47
2022/11/18 10:11:16;;;;;;;28.38;15.50;;;5.60;99.90;;;;;;5055844;28;20049;-47
2022/11/18 10:13:48;;;;;;;26.50;15.60;;;5.60;99.90;;;;;;5033118;28;20099;-48
2022/11/18 10:16:32;;;;;;;26.17;15.27;;;5.70;99.90;;;;;;5052069;28;20131;-47
2022/11/18 10:19:16;;;;;;;23.25;14.18;;;5.70;99.90;;;;;;5055125;28;20041;-48
2022/11/18 10:21:45;;;;;;;29.52;15.45;;;5.70;99.90;;;;;;5055090;28;20145;-48
2022/11/18 10:24:19;;;;;;;25.15;15.65;;;5.70;99.90;;;;;;5055009;28;20072;-47
2022/11/18 10:26:45;;;;;;;25.52;16.75;;;5.70;99.90;;;;;;5054984;28;20420;-48
2022/11/18 10:29:11;;;;;;;25.73;15.50;;;5.50;99.90;;;;;;5054917;28;20048;-48
2022/11/18 10:31:51;;;;;;;27.13;15.48;;;5.60;99.90;;;;;;5054862;28;20429;-47
2022/11/18 10:34:18;;;;;;;24.10;15.20;;;5.60;99.90;;;;;;5055401;28;20376;-47
2022/11/18 10:37:00;;;;;;;31.60;16.65;;;5.60;99.90;;;;;;5054382;28;20391;-47
2022/11/18 10:39:26;;;;;;;28.67;16.80;;;5.60;99.90;;;;;;5054841;28;20057;-46
2022/11/18 10:41:57;;;;;;;27.98;17.40;;;5.50;99.90;;;;;;5054717;28;20463;-46
2022/11/18 10:44:35;;;;;;;33.33;18.75;;;5.50;99.90;;;;;;5053700;28;20044;-46
2022/11/18 10:47:43;;;;;;;31.67;17.88;;;5.50;99.90;;;;;;5055452;28;20045;-46
2022/11/18 10:50:30;;;;;;;28.80;17.80;;;5.50;99.90;;;;;;5054493;28;20479;-44
2022/11/18 10:52:55;;;;;;;25.52;15.88;;;5.40;99.90;;;;;;5035646;28;20410;-44
2022/11/18 10:55:23;;;;;;;33.28;17.50;;;5.30;99.90;;;;;;5054430;28;20041;-44
2022/11/18 10:57:54;;;;;;;32.55;17.63;;;5.30;99.90;;;;;;5055125;28;20123;-44
2022/11/18 11:00:31;;;;;;;37.55;19.05;;;5.30;99.90;;;;;;5054212;28;20053;-43
2022/11/18 11:02:57;;;;;;;32.65;18.15;;;5.30;99.90;;;;;;5054238;28;20049;-44
2022/11/18 11:05:24;;;;;;;33.33;18.70;;;5.30;99.90;;;;;;5053879;28;20044;-43
2022/11/18 11:08:04;;;;;;;33.67;18.45;;;5.40;99.90;;;;;;5054184;28;20125;-43
2022/11/18 11:10:30;;;;;;;37.78;18.05;;;5.30;99.90;;;;;;5053513;28;20048;-43
2022/11/18 11:13:01;;;;;;;32.78;17.08;;;5.40;99.90;;;;;;5053992;28;20049;-43
2022/11/18 11:15:46;;;;;;;31.58;16.98;;;5.20;99.90;;;;;;5054364;28;20471;-43
2022/11/18 11:21:08;;;;;;;;;;;5.10;99.90;;;;;;5054051;28;20509;-44
2022/11/18 11:23:34;;;;;;;32.10;17.77;;;4.90;99.90;;;;;;5053500;28;19970;-44
2022/11/18 11:26:08;;;;;;;28.08;15.40;;;5.00;99.90;;;;;;5053185;28;20045;-44
2022/11/18 11:29:16;;;;;;;31.13;16.77;;;4.90;99.90;;;;;;5037243;28;20053;-44
2022/11/18 11:31:50;;;;;;;28.58;16.38;;;4.80;99.90;;;;;;5053676;28;20478;-44
2022/11/18 11:34:35;;;;;;;34.38;17.63;;;4.80;99.90;;;;;;5053743;28;20060;-44
2022/11/18 11:37:30;;;;;;;34.30;17.58;;;4.80;99.90;;;;;;5053999;28;20045;-44
2022/11/18 11:39:56;;;;;;;34.92;17.52;;;4.90;99.90;;;;;;5053356;28;20053;-44
2022/11/18 11:42:37;;;;;;;40.92;19.45;;;4.80;99.90;;;;;;5052715;28;20063;-44
2022/11/18 11:45:20;;;;;;;35.33;17.25;;;4.90;99.90;;;;;;5053735;28;20048;-44
2022/11/18 11:48:03;;;;;;;32.65;16.30;;;4.90;99.90;;;;;;5053592;28;20046;-44
2022/11/18 11:50:57;;;;;;;31.10;16.73;;;4.90;99.90;;;;;;5054217;28;20056;-45
2022/11/18 11:53:28;;;;;;;;;;;4.90;99.90;;;;;;5054590;28;20084;-44
2022/11/18 11:56:03;;;;;;;37.45;17.63;;;4.90;99.90;;;;;;5053406;28;19944;-44
2022/11/18 11:58:52;;;;;;;36.85;17.92;;;4.80;99.90;;;;;;5053498;28;20466;-44
2022/11/18 12:01:28;;;;;;;42.78;18.38;;;4.80;99.90;;;;;;5054074;28;20055;-44
2022/11/18 12:04:38;;;;;;;40.08;18.75;;;4.80;99.90;;;;;;5054195;28;20048;-44
2022/11/18 12:07:07;;;;;;;36.53;19.38;;;4.60;99.90;;;;;;5057721;28;20084;-44
2022/11/18 12:09:32;;;;;;;39.50;20.05;;;4.70;99.90;;;;;;5058086;28;20045;-44
2022/11/18 12:11:58;;;;;;;46.72;21.30;;;4.70;99.90;;;;;;5057414;28;20483;-44
2022/11/18 12:14:43;;;;;;;43.33;21.25;;;4.50;99.90;;;;;;5057400;28;20483;-44
2022/11/18 12:17:26;;;;;;;39.42;20.42;;;4.60;99.90;;;;;;5056477;28;20116;-43
2022/11/18 12:19:52;;;;;;;46.55;21.90;;;4.50;99.90;;;;;;5057494;28;20096;-43
2022/11/18 12:22:18;;;;;;;47.83;22.33;;;4.50;99.90;;;;;;5057003;28;20076;-43
2022/11/18 12:24:43;;;;;;;46.70;21.10;;;4.40;99.90;;;;;;5073003;28;20060;-43
2022/11/18 12:27:12;;;;;;;51.40;22.70;;;4.40;99.90;;;;;;5056024;28;20033;-43
2022/11/18 12:29:47;;;;;;;49.75;23.23;;;4.30;99.90;;;;;;5057245;28;20049;-44
2022/11/18 12:32:44;;;;;;;45.17;22.00;;;4.50;99.90;;;;;;5057173;28;20441;-43
2022/11/18 12:35:13;;;;;;;50.75;23.33;;;4.30;99.90;;;;;;5057437;28;20406;-42
2022/11/18 12:37:50;;;;;;;48.25;22.20;;;4.30;99.90;;;;;;5057039;28;20045;-43
2022/11/18 12:40:37;;;;;;;46.22;22.05;;;4.30;99.90;;;;;;5055602;28;20060;-42
2022/11/18 12:46:09;;;;;;;43.90;21.20;;;4.20;99.90;;;;;;5057788;28;20174;-43
2022/11/18 12:48:41;;;;;;;41.15;20.02;;;4.30;99.90;;;;;;5056862;28;20502;-43
2022/11/18 12:51:29;;;;;;;39.45;18.75;;;4.30;99.90;;;;;;5056524;28;20495;-43
2022/11/18 12:53:55;;;;;;;32.67;17.50;;;4.10;99.90;;;;;;5056653;28;20186;-43
2022/11/18 12:56:26;;;;;;;36.00;19.13;;;4.10;99.90;;;;;;5056630;28;20041;-43
2022/11/18 12:58:54;;;;;;;40.05;19.20;;;4.10;99.90;;;;;;5056299;28;20053;-42
2022/11/18 13:01:23;;;;;;;36.83;19.08;;;4.20;99.90;;;;;;5056291;28;20537;-42
2022/11/18 13:03:49;;;;;;;37.38;19.17;;;4.20;99.90;;;;;;5056566;28;20052;-43
2022/11/18 13:06:27;;;;;;;35.38;18.17;;;4.20;99.90;;;;;;5056486;28;20052;-42
2022/11/18 13:08:57;;;;;;;38.47;19.58;;;4.20;99.90;;;;;;5056751;28;20471;-42
2022/11/18 13:17:50;;;;;;;38.10;18.10;;;4.10;99.90;;;;;;5055148;28;20506;-42